createdAt,value
2023-01-01T00:00:49.916Z,17.67
2023-01-01T00:03:17.175Z,16.13
2023-01-01T00:07:33.262Z,16.10
2023-01-01T00:10:18.649Z,14.02
2023-01-01T00:12:45.430Z,15.20
2023-01-01T00:15:12.291Z,16.42
2023-01-01T00:17:39.030Z,14.30
2023-01-01T00:20:06.767Z,13.65
2023-01-01T00:22:53.925Z,14.10
2023-01-01T00:25:21.147Z,15.98
2023-01-01T00:27:47.896Z,17.73
2023-01-01T00:30:14.778Z,17.75
2023-01-01T00:32:42.033Z,17.65
2023-01-01T00:35:11.926Z,20.25
2023-01-01T00:37:44.892Z,23.95
2023-01-01T00:42:41.720Z,22.73
2023-01-01T00:45:09.086Z,24.35
2023-01-01T00:47:35.859Z,25.38
2023-01-01T00:50:03.143Z,23.55
2023-01-01T00:52:32.201Z,30.48
2023-01-01T00:54:59.033Z,26.85
2023-01-01T00:57:25.772Z,26.77
2023-01-01T00:59:52.502Z,26.92
2023-01-01T01:02:29.680Z,26.35
2023-01-01T01:04:56.787Z,27.55
2023-01-01T01:07:23.658Z,26.70
2023-01-01T01:09:55.126Z,28.08
2023-01-01T01:14:51.749Z,27.00
2023-01-01T01:17:21.309Z,24.40
2023-01-01T01:19:48.050Z,24.55
2023-01-01T01:25:04.857Z,24.92
2023-01-01T01:27:32.010Z,25.42
2023-01-01T01:29:58.875Z,26.35
2023-01-01T01:32:25.660Z,24.45
2023-01-01T01:34:55.982Z,25.40
2023-01-01T01:37:22.759Z,24.00
2023-01-01T01:39:53.729Z,23.92
2023-01-01T01:42:21.151Z,29.10
2023-01-01T01:45:01.292Z,21.58
2023-01-01T01:47:42.447Z,22.20
2023-01-01T01:50:18.767Z,19.75
2023-01-01T01:53:09.207Z,23.73
2023-01-01T01:55:39.989Z,19.50
2023-01-01T01:58:09.426Z,18.98
2023-01-01T02:00:36.326Z,18.85
2023-01-01T02:03:08.936Z,18.58
2023-01-01T02:05:39.029Z,18.73
2023-01-01T02:08:07.373Z,20.92
2023-01-01T02:10:34.579Z,18.80
2023-01-01T02:13:04.035Z,20.40
2023-01-01T02:16:05.845Z,19.67
2023-01-01T02:18:59.190Z,19.20
2023-01-01T02:21:34.657Z,16.35
2023-01-01T02:24:22.324Z,15.75
2023-01-01T02:27:34.145Z,18.40
2023-01-01T02:30:09.038Z,17.58
2023-01-01T02:33:12.059Z,16.38
2023-01-01T02:35:50.911Z,16.08
2023-01-01T02:38:41.260Z,13.88
2023-01-01T02:41:14.063Z,14.38
2023-01-01T02:43:42.622Z,13.10
2023-01-01T02:46:12.451Z,12.38
2023-01-01T02:48:57.695Z,14.57
2023-01-01T02:51:57.582Z,15.98
2023-01-01T02:54:30.154Z,13.77
2023-01-01T02:56:59.781Z,15.77
2023-01-01T02:59:48.121Z,12.52
2023-01-01T03:02:34.122Z,13.70
2023-01-01T03:05:20.184Z,16.63
2023-01-01T03:08:00.881Z,14.48
2023-01-01T03:10:36.455Z,14.43
2023-01-01T03:13:26.191Z,13.75
2023-01-01T03:15:59.953Z,10.60
2023-01-01T03:18:36.892Z,10.13
2023-01-01T03:21:06.229Z,9.35
2023-01-01T03:23:38.712Z,8.32
2023-01-01T03:26:10.201Z,8.60
2023-01-01T03:28:46.076Z,8.60
2023-01-01T03:31:17.141Z,8.52
2023-01-01T03:33:49.067Z,9.32
2023-01-01T03:36:18.407Z,9.52
2023-01-01T03:38:53.199Z,10.38
2023-01-01T03:41:34.265Z,9.18
2023-01-01T03:44:24.142Z,9.80
2023-01-01T03:46:54.552Z,10.25
2023-01-01T03:49:21.998Z,9.77
2023-01-01T03:52:17.042Z,8.15
2023-01-01T03:54:58.491Z,10.55
2023-01-01T03:57:54.731Z,9.82
2023-01-01T04:00:37.961Z,9.07
2023-01-01T04:03:25.607Z,9.73
2023-01-01T04:05:52.924Z,8.80
2023-01-01T04:08:20.428Z,8.88
2023-01-01T04:10:54.701Z,9.23
2023-01-01T04:13:22.491Z,8.73
2023-01-01T04:15:49.959Z,8.70
2023-01-01T04:18:23.420Z,9.52
2023-01-01T04:20:56.524Z,8.52
2023-01-01T04:23:23.240Z,8.98
2023-01-01T04:25:49.972Z,8.70
2023-01-01T04:28:16.718Z,8.18
2023-01-01T04:33:28.817Z,8.05
2023-01-01T04:35:55.597Z,8.73
2023-01-01T04:38:22.539Z,7.32
2023-01-01T04:41:08.140Z,7.88
2023-01-01T04:43:35.354Z,10.18
2023-01-01T04:46:04.119Z,8.27
2023-01-01T04:48:35.460Z,10.18
2023-01-01T04:51:04.807Z,8.48
2023-01-01T04:53:45.185Z,9.13
2023-01-01T04:56:14.713Z,9.25
2023-01-01T04:58:43.326Z,9.93
2023-01-01T05:01:22.147Z,11.77
2023-01-01T05:03:49.650Z,11.07
2023-01-01T05:06:17.039Z,10.43
2023-01-01T05:08:46.385Z,11.88
2023-01-01T05:11:39.578Z,13.05
2023-01-01T05:14:08.126Z,13.48
2023-01-01T05:16:37.876Z,11.98
2023-01-01T05:19:05.956Z,12.75
2023-01-01T05:21:38.367Z,12.45
2023-01-01T05:24:10.248Z,11.82
2023-01-01T05:26:41.094Z,12.35
2023-01-01T05:29:21.950Z,12.25
2023-01-01T05:31:53.259Z,11.55
2023-01-01T05:34:20.632Z,10.98
2023-01-01T05:36:47.427Z,11.25
2023-01-01T05:39:14.141Z,8.60
2023-01-01T05:41:55.915Z,9.40
2023-01-01T05:44:29.576Z,8.68
2023-01-01T05:46:56.416Z,11.77
2023-01-01T05:49:23.278Z,6.40
2023-01-01T05:51:50.136Z,8.80
2023-01-01T05:56:43.070Z,9.35
2023-01-01T05:59:10.799Z,10.38
2023-01-01T06:01:43.475Z,14.43
2023-01-01T06:04:14.513Z,12.32
2023-01-01T06:06:41.544Z,12.98
2023-01-01T06:09:09.942Z,12.13
2023-01-01T06:11:36.678Z,12.93
2023-01-01T06:14:04.361Z,15.35
2023-01-01T06:16:31.835Z,13.18
2023-01-01T06:18:59.877Z,11.40
2023-01-01T06:21:28.028Z,13.73
2023-01-01T06:23:57.002Z,12.80
2023-01-01T06:26:35.223Z,11.38
2023-01-01T06:29:02.922Z,11.73
2023-01-01T06:31:35.374Z,12.93
2023-01-01T06:34:06.419Z,12.23
2023-01-01T06:36:33.699Z,9.70
2023-01-01T06:39:00.623Z,11.45
2023-01-01T06:41:28.097Z,9.63
2023-01-01T06:43:56.565Z,9.70
2023-01-01T06:46:31.210Z,8.77
2023-01-01T06:51:29.778Z,8.55
2023-01-01T06:54:00.295Z,10.05
2023-01-01T06:56:27.805Z,9.85
2023-01-01T06:59:02.039Z,8.70
2023-01-01T07:01:31.625Z,9.43
2023-01-01T07:04:00.586Z,7.80
2023-01-01T07:06:29.351Z,8.57
2023-01-01T07:08:56.967Z,7.80
2023-01-01T07:11:24.106Z,6.88
2023-01-01T07:13:51.027Z,8.40
2023-01-01T07:16:18.176Z,7.78
2023-01-01T07:18:46.053Z,6.00
2023-01-01T07:21:29.099Z,7.07
2023-01-01T07:24:05.706Z,7.00
2023-01-01T07:26:35.695Z,7.57
2023-01-01T07:29:07.551Z,7.18
2023-01-01T07:31:36.642Z,6.38
2023-01-01T07:34:04.036Z,7.13
2023-01-01T07:36:30.947Z,7.30
2023-01-01T07:38:57.753Z,7.93
2023-01-01T07:41:24.468Z,9.55
2023-01-01T07:43:51.903Z,7.93
2023-01-01T07:46:21.862Z,7.47
2023-01-01T07:48:48.844Z,7.75
2023-01-01T07:51:15.573Z,6.55
2023-01-01T07:53:42.368Z,6.50
2023-01-01T07:56:23.150Z,7.60
2023-01-01T07:58:49.937Z,7.72
2023-01-01T08:01:16.901Z,7.50
2023-01-01T08:03:43.847Z,6.97
2023-01-01T08:06:12.608Z,7.60
2023-01-01T08:08:40.286Z,6.90
2023-01-01T08:11:07.288Z,5.82
2023-01-01T08:13:37.109Z,6.70
2023-01-01T08:16:05.762Z,6.25
2023-01-01T08:18:32.570Z,6.32
2023-01-01T08:20:59.606Z,7.03
2023-01-01T08:23:26.338Z,8.10
2023-01-01T08:25:53.206Z,7.85
2023-01-01T08:28:20.327Z,7.43
2023-01-01T08:30:47.120Z,8.75
2023-01-01T08:33:29.187Z,6.65
2023-01-01T08:35:56.003Z,6.82
2023-01-01T08:38:22.890Z,6.53
2023-01-01T08:40:53.168Z,6.22
2023-01-01T08:43:19.903Z,7.25
2023-01-01T08:45:46.761Z,8.40
2023-01-01T08:48:13.934Z,7.38
2023-01-01T08:50:41.144Z,7.75
2023-01-01T08:53:07.940Z,8.32
2023-01-01T08:55:42.849Z,7.85
2023-01-01T08:58:16.936Z,7.45
2023-01-01T09:00:43.692Z,6.20
2023-01-01T09:03:10.577Z,6.03
2023-01-01T09:05:40.394Z,6.13
2023-01-01T09:08:14.632Z,7.47
2023-01-01T09:10:43.436Z,7.15
2023-01-01T09:13:14.922Z,5.90
2023-01-01T09:15:45.581Z,6.53
2023-01-01T09:18:19.481Z,7.63
2023-01-01T09:20:46.219Z,6.30
2023-01-01T09:23:13.578Z,6.75
2023-01-01T09:25:40.679Z,5.75
2023-01-01T09:28:11.463Z,5.88
2023-01-01T09:30:38.412Z,5.65
2023-01-01T09:33:06.924Z,7.35
2023-01-01T09:35:33.735Z,8.13
2023-01-01T09:38:00.460Z,7.97
2023-01-01T09:40:32.367Z,6.75
2023-01-01T09:43:29.351Z,5.85
2023-01-01T09:46:02.737Z,5.57
2023-01-01T09:48:31.301Z,6.57
2023-01-01T09:51:00.240Z,5.28
2023-01-01T09:53:27.091Z,4.65
2023-01-01T09:55:59.692Z,4.38
2023-01-01T09:58:41.384Z,5.35
2023-01-01T10:01:36.705Z,4.30
2023-01-01T10:04:10.089Z,5.78
2023-01-01T10:06:55.842Z,4.95
2023-01-01T10:09:51.125Z,4.82
2023-01-01T10:12:42.376Z,6.38
2023-01-01T10:15:15.675Z,4.95
2023-01-01T10:17:46.520Z,4.60
2023-01-01T10:20:44.436Z,5.95
2023-01-01T10:23:23.657Z,4.38
2023-01-01T10:25:50.415Z,7.40
2023-01-01T10:28:45.485Z,4.28
2023-01-01T10:31:19.972Z,4.80
2023-01-01T10:33:48.232Z,7.30
2023-01-01T10:36:19.402Z,5.35
2023-01-01T10:38:50.962Z,7.25
2023-01-01T10:41:20.115Z,5.30
2023-01-01T10:43:48.281Z,4.40
2023-01-01T10:46:27.634Z,4.00
2023-01-01T10:49:12.369Z,4.57
2023-01-01T10:51:44.776Z,4.63
2023-01-01T10:54:38.102Z,5.18
2023-01-01T10:57:20.566Z,4.88
2023-01-01T10:59:54.022Z,6.63
2023-01-01T11:02:28.258Z,5.35
2023-01-01T11:05:25.520Z,4.53
2023-01-01T11:07:52.717Z,5.40
2023-01-01T11:10:22.953Z,4.32
2023-01-01T11:13:05.155Z,4.63
2023-01-01T11:15:39.534Z,3.72
2023-01-01T11:18:27.605Z,4.20
2023-01-01T11:21:01.658Z,3.45
2023-01-01T11:23:35.815Z,5.07
2023-01-01T11:26:02.523Z,4.60
2023-01-01T11:28:31.797Z,4.45
2023-01-01T11:31:03.629Z,4.75
2023-01-01T11:33:50.071Z,4.95
2023-01-01T11:36:24.645Z,5.70
2023-01-01T11:39:19.326Z,7.47
2023-01-01T11:41:52.036Z,6.97
2023-01-01T11:44:28.111Z,4.70
2023-01-01T11:46:55.114Z,4.95
2023-01-01T11:49:25.734Z,6.53
2023-01-01T11:51:52.585Z,7.55
2023-01-01T11:54:28.313Z,7.63
2023-01-01T11:57:16.129Z,6.07
2023-01-01T11:59:51.079Z,5.13
2023-01-01T12:02:42.757Z,4.57
2023-01-01T12:05:15.717Z,9.45
2023-01-01T12:07:44.737Z,9.05
2023-01-01T12:10:17.905Z,8.35
2023-01-01T12:12:52.190Z,4.18
2023-01-01T12:15:31.338Z,3.38
2023-01-01T12:18:04.829Z,6.13
2023-01-01T12:20:36.833Z,6.38
2023-01-01T12:23:03.750Z,6.82
2023-01-01T12:25:39.640Z,7.10
2023-01-01T12:28:16.706Z,3.83
2023-01-01T12:30:49.785Z,8.88
2023-01-01T12:33:28.652Z,6.65
2023-01-01T12:36:14.604Z,3.22
2023-01-01T12:39:18.453Z,6.65
2023-01-01T12:42:04.901Z,3.78
2023-01-01T12:44:50.814Z,4.30
2023-01-01T12:47:37.236Z,5.95
2023-01-01T12:50:11.828Z,4.22
2023-01-01T12:53:00.757Z,6.90
2023-01-01T12:55:50.704Z,8.75
2023-01-01T12:58:20.656Z,5.88
2023-01-01T13:01:17.033Z,4.85
2023-01-01T13:03:52.103Z,4.50
2023-01-01T13:06:28.448Z,5.35
2023-01-01T13:09:04.961Z,3.65
2023-01-01T13:11:39.822Z,6.60
2023-01-01T13:14:09.839Z,5.32
2023-01-01T13:16:39.530Z,3.30
2023-01-01T13:19:06.367Z,7.88
2023-01-01T13:21:43.668Z,7.32
2023-01-01T13:24:23.604Z,3.80
2023-01-01T13:26:50.654Z,6.40
2023-01-01T13:29:20.834Z,4.18
2023-01-01T13:31:47.620Z,4.55
2023-01-01T13:34:58.131Z,4.75
2023-01-01T13:37:24.783Z,3.47
2023-01-01T13:40:21.870Z,6.90
2023-01-01T13:42:59.198Z,4.43
2023-01-01T13:46:10.407Z,6.07
2023-01-01T13:48:47.875Z,3.90
2023-01-01T13:52:04.145Z,6.20
2023-01-01T13:54:56.118Z,5.35
2023-01-01T13:57:54.678Z,5.83
2023-01-01T14:00:31.811Z,3.92
2023-01-01T14:03:02.807Z,5.13
2023-01-01T14:05:42.622Z,4.47
2023-01-01T14:08:30.403Z,5.95
2023-01-01T14:10:57.789Z,4.28
2023-01-01T14:13:29.991Z,5.72
2023-01-01T14:16:01.438Z,4.57
2023-01-01T14:18:33.708Z,2.58
2023-01-01T14:21:00.815Z,5.07
2023-01-01T14:23:36.665Z,4.03
2023-01-01T14:26:39.219Z,3.88
2023-01-01T14:29:08.671Z,3.70
2023-01-01T14:31:45.818Z,2.85
2023-01-01T14:34:35.792Z,3.38
2023-01-01T14:37:05.042Z,4.82
2023-01-01T14:39:34.187Z,4.53
2023-01-01T14:42:08.721Z,3.38
2023-01-01T14:44:40.622Z,2.88
2023-01-01T14:47:32.420Z,2.38
2023-01-01T14:50:16.038Z,3.65
2023-01-01T14:52:44.417Z,2.40
2023-01-01T14:55:20.549Z,3.03
2023-01-01T14:57:53.341Z,3.97
2023-01-01T15:00:38.943Z,4.72
2023-01-01T15:03:18.333Z,5.03
2023-01-01T15:06:00.139Z,3.67
2023-01-01T15:08:27.883Z,3.50
2023-01-01T15:10:55.501Z,5.40
2023-01-01T15:13:25.749Z,5.57
2023-01-01T15:16:16.802Z,4.38
2023-01-01T15:18:50.167Z,7.90
2023-01-01T15:21:17.160Z,4.70
2023-01-01T15:23:57.098Z,5.75
2023-01-01T15:26:39.777Z,5.85
2023-01-01T15:29:10.542Z,8.77
2023-01-01T15:31:43.134Z,4.53
2023-01-01T15:34:22.858Z,4.68
2023-01-01T15:36:51.065Z,5.70
2023-01-01T15:39:18.489Z,4.50
2023-01-01T15:42:06.912Z,7.70
2023-01-01T15:44:42.166Z,5.70
2023-01-01T15:47:26.900Z,3.53
2023-01-01T15:50:31.263Z,3.45
2023-01-01T15:53:03.931Z,5.50
2023-01-01T15:55:34.276Z,4.60
2023-01-01T15:58:03.411Z,6.47
2023-01-01T16:00:40.312Z,3.88
2023-01-01T16:03:22.761Z,5.57
2023-01-01T16:05:55.260Z,4.07
2023-01-01T16:08:22.199Z,6.53
2023-01-01T16:10:50.258Z,5.45
2023-01-01T16:13:17.878Z,3.92
2023-01-01T16:15:53.877Z,5.90
2023-01-01T16:18:24.090Z,5.95
2023-01-01T16:20:52.141Z,4.88
2023-01-01T16:23:19.086Z,4.13
2023-01-01T16:25:46.199Z,4.68
2023-01-01T16:28:17.064Z,4.07
2023-01-01T16:30:44.663Z,4.40
2023-01-01T16:33:16.351Z,4.07
2023-01-01T16:35:50.138Z,4.70
2023-01-01T16:38:17.120Z,4.63
2023-01-01T16:40:50.124Z,4.63
2023-01-01T16:43:23.662Z,6.10
2023-01-01T16:45:51.339Z,4.40
2023-01-01T16:48:18.110Z,4.90
2023-01-01T16:50:45.098Z,3.78
2023-01-01T16:53:12.247Z,3.58
2023-01-01T16:55:39.063Z,3.05
2023-01-01T16:58:47.505Z,2.47
2023-01-01T17:00:59.595Z,3.70
2023-01-01T17:03:26.702Z,5.37
2023-01-01T17:05:53.491Z,4.43
2023-01-01T17:08:20.224Z,3.65
2023-01-01T17:10:46.976Z,3.88
2023-01-01T17:13:13.947Z,4.03
2023-01-01T17:15:40.782Z,2.70
2023-01-01T17:18:07.928Z,3.45
2023-01-01T17:20:34.725Z,3.85
2023-01-01T17:23:02.802Z,3.50
2023-01-01T17:25:29.715Z,3.83
2023-01-01T17:27:56.451Z,2.80
2023-01-01T17:30:23.182Z,3.90
2023-01-01T17:32:49.909Z,3.83
2023-01-01T17:35:16.661Z,5.78
2023-01-01T17:37:43.336Z,5.22
2023-01-01T17:40:25.720Z,5.43
2023-01-01T17:42:55.026Z,4.35
2023-01-01T17:45:22.035Z,3.60
2023-01-01T17:47:48.906Z,3.80
2023-01-01T17:50:15.859Z,2.95
2023-01-01T17:52:42.663Z,3.22
2023-01-01T17:55:10.097Z,4.43
2023-01-01T17:57:37.025Z,2.03
2023-01-01T18:00:04.315Z,3.42
2023-01-01T18:02:39.241Z,3.05
2023-01-01T18:05:06.474Z,4.65
2023-01-01T18:07:33.680Z,3.15
2023-01-01T18:10:00.421Z,4.13
2023-01-01T18:12:27.171Z,3.47
2023-01-01T18:14:54.021Z,4.80
2023-01-01T18:17:20.757Z,3.20
2023-01-01T18:19:47.961Z,3.42
2023-01-01T18:22:15.008Z,3.53
2023-01-01T18:24:41.779Z,3.70
2023-01-01T18:27:08.518Z,3.33
2023-01-01T18:29:37.400Z,3.88
2023-01-01T18:32:04.440Z,3.47
2023-01-01T18:34:35.571Z,3.03
2023-01-01T18:37:03.002Z,3.80
2023-01-01T18:39:33.452Z,3.78
2023-01-01T18:42:34.991Z,4.57
2023-01-01T18:45:17.242Z,4.57
2023-01-01T18:47:45.756Z,5.15
2023-01-01T18:50:27.354Z,3.75
2023-01-01T18:53:20.168Z,4.07
2023-01-01T18:55:51.177Z,3.90
2023-01-01T18:58:19.862Z,4.15
2023-01-01T19:00:46.746Z,5.22
2023-01-01T19:03:19.010Z,3.78
2023-01-01T19:05:51.981Z,4.00
2023-01-01T19:08:28.291Z,3.78
2023-01-01T19:10:58.586Z,4.47
2023-01-01T19:13:32.654Z,4.65
2023-01-01T19:16:02.873Z,5.25
2023-01-01T19:18:32.523Z,4.45
2023-01-01T19:21:16.811Z,5.25
2023-01-01T19:23:46.300Z,4.90
2023-01-01T19:26:24.262Z,4.85
2023-01-01T19:29:18.346Z,4.70
2023-01-01T19:31:47.037Z,4.97
2023-01-01T19:34:14.219Z,4.78
2023-01-01T19:36:41.969Z,4.55
2023-01-01T19:39:15.320Z,4.85
2023-01-01T19:41:49.290Z,5.15
2023-01-01T19:44:24.755Z,4.45
2023-01-01T19:46:53.259Z,4.30
2023-01-01T19:49:20.051Z,5.47
2023-01-01T19:51:46.745Z,4.15
2023-01-01T19:54:13.570Z,4.93
2023-01-01T19:56:40.372Z,5.53
2023-01-01T19:59:08.280Z,4.15
2023-01-01T20:01:35.274Z,4.50
2023-01-01T20:04:02.516Z,3.45
2023-01-01T20:06:36.404Z,4.67
2023-01-01T20:09:20.998Z,3.42
2023-01-01T20:11:50.704Z,4.00
2023-01-01T20:14:17.826Z,5.22
2023-01-01T20:16:51.287Z,5.60
2023-01-01T20:19:18.050Z,4.10
2023-01-01T20:22:08.421Z,3.70
2023-01-01T20:24:35.199Z,3.50
2023-01-01T20:27:01.916Z,4.45
2023-01-01T20:29:35.022Z,5.03
2023-01-01T20:32:02.045Z,6.03
2023-01-01T20:34:28.915Z,4.38
2023-01-01T20:37:17.288Z,4.25
2023-01-01T20:39:47.947Z,4.30
2023-01-01T20:42:14.737Z,4.40
2023-01-01T20:44:44.354Z,4.15
2023-01-01T20:47:12.244Z,4.43
2023-01-01T20:49:40.017Z,4.53
2023-01-01T20:52:21.459Z,3.70
2023-01-01T20:54:55.096Z,5.65
2023-01-01T20:57:21.831Z,4.57
2023-01-01T20:59:51.454Z,3.45
2023-01-01T21:02:18.619Z,5.35
2023-01-01T21:04:45.423Z,3.85
2023-01-01T21:07:13.633Z,3.75
2023-01-01T21:09:40.960Z,4.20
2023-01-01T21:12:08.553Z,3.90
2023-01-01T21:14:35.851Z,4.80
2023-01-01T21:17:28.996Z,3.90
2023-01-01T21:19:58.849Z,3.75
2023-01-01T21:22:27.292Z,4.50
2023-01-01T21:25:49.178Z,5.45
2023-01-01T21:30:31.992Z,4.13
2023-01-01T21:32:58.869Z,5.18
2023-01-01T21:35:35.496Z,5.28
2023-01-01T21:38:14.325Z,4.47
2023-01-01T21:40:53.187Z,4.55
2023-01-01T21:43:35.589Z,5.38
2023-01-01T21:46:19.743Z,6.00
2023-01-01T21:48:55.561Z,7.82
2023-01-01T21:51:35.851Z,7.50
2023-01-01T21:54:23.672Z,7.85
2023-01-01T21:57:01.035Z,8.55
2023-01-01T21:59:39.872Z,10.30
2023-01-01T22:02:15.108Z,9.88
2023-01-01T22:04:48.233Z,8.32
2023-01-01T22:07:57.588Z,7.75
2023-01-01T22:10:29.690Z,8.27
2023-01-01T22:13:23.647Z,7.97
2023-01-01T22:15:57.340Z,6.50
2023-01-01T22:18:26.255Z,6.97
2023-01-01T22:20:53.643Z,5.80
2023-01-01T22:23:39.838Z,5.50
2023-01-01T22:26:27.661Z,7.25
2023-01-01T22:29:01.954Z,8.20
2023-01-01T22:31:36.380Z,6.22
2023-01-01T22:34:16.668Z,6.35
2023-01-01T22:36:43.484Z,6.82
2023-01-01T22:39:18.784Z,4.10
2023-01-01T22:41:49.211Z,5.97
2023-01-01T22:44:16.128Z,5.45
2023-01-01T22:46:43.191Z,6.55
2023-01-01T22:49:23.065Z,6.03
2023-01-01T22:51:54.629Z,5.63
2023-01-01T22:54:21.515Z,3.95
2023-01-01T22:56:48.276Z,6.78
2023-01-01T22:59:15.306Z,5.25
2023-01-01T23:01:42.125Z,6.63
2023-01-01T23:04:10.335Z,6.30
2023-01-01T23:06:37.807Z,5.60
2023-01-01T23:09:06.025Z,4.88
2023-01-01T23:11:39.680Z,6.00
2023-01-01T23:14:38.462Z,7.63
2023-01-01T23:17:05.802Z,4.75
2023-01-01T23:19:32.648Z,5.88
2023-01-01T23:22:06.523Z,5.88
2023-01-01T23:24:33.915Z,5.95
2023-01-01T23:27:01.551Z,5.80
2023-01-01T23:29:31.947Z,7.50
2023-01-01T23:31:59.529Z,6.68
2023-01-01T23:34:26.331Z,5.53
2023-01-01T23:36:54.665Z,5.22
2023-01-01T23:39:21.574Z,5.50
2023-01-01T23:41:49.219Z,4.93
2023-01-01T23:44:26.450Z,4.85
2023-01-01T23:47:07.740Z,5.88
2023-01-01T23:49:42.231Z,4.78
2023-01-01T23:52:09.907Z,5.05
2023-01-01T23:54:42.778Z,5.32
2023-01-01T23:57:09.517Z,4.68
2023-01-01T23:59:45.740Z,5.15
